Latest Weather Observations for Hobart Airport

IDT60901

Issued at 6:31 pm EST Thursday 9 April 2020 (issued every 10 minutes, with the page automatically refreshed every 10 minutes)

About weather observations | Map of Hobart area stations | Latest observations for Hobart area | Other Formats
Station Details ID: 094008 Name: HOBART AIRPORT Lat: -42.83 Lon: 147.50 Height: 4.0 m
Data from the previous 72 hours. | See also: Recent months at Hobart Airport
Date/Time
EST
Temp
°C
App
Temp
°C
Dew
Point
°C
Rel
Hum
%
Delta-T
°C
Wind Press
QNH
hPa
Press
MSL
hPa
Rain since
9am
mm
Dir  Spd
km/h
Gust
km/h
Spd
kts
Gust
kts
09/06:00pm 14.1 13.2 10.5 79 1.9 SSW 6 9 3 5 1022.2 1022.2 0.0
09/05:30pm 15.9 14.0 10.4 70 2.9 SSW 11 13 6 7 1022.3 1022.3 0.0
09/05:00pm 17.1 15.1 10.3 64 3.6 S 11 13 6 7 1022.5 1022.5 0.0
09/04:30pm 18.3 15.7 9.5 56 4.6 SSE 13 15 7 8 1022.7 1022.7 0.0
09/04:00pm 18.6 16.4 9.2 54 4.9 SE 11 15 6 8 1023.1 1023.1 0.0
09/03:30pm 20.0 17.0 5.8 39 7.0 WNW 11 13 6 7 1023.5 1023.5 0.0
09/03:00pm 20.0 17.0 6.1 40 6.9 NW 11 15 6 8 1023.9 1023.9 0.0
09/02:30pm 19.7 16.4 6.2 41 6.7 WNW 13 17 7 9 1024.3 1024.3 0.0
09/02:00pm 19.3 16.3 6.2 42 6.5 NW 11 15 6 8 1024.8 1024.8 0.0
09/01:30pm 18.9 15.5 5.8 42 6.4 NW 13 19 7 10 1025.3 1025.3 0.0
09/01:00pm 18.4 15.3 7.2 48 5.6 WNW 13 19 7 10 1026.0 1026.0 0.0
09/12:30pm 17.9 14.0 7.3 50 5.3 NNW 17 24 9 13 1026.5 1026.5 0.0
09/12:00pm 17.1 13.2 7.0 51 5.0 NNW 17 26 9 14 1027.2 1027.2 0.0
09/11:30am 16.6 12.4 7.3 54 4.6 NNW 19 28 10 15 1027.6 1027.6 0.0
09/11:00am 15.4 12.0 7.7 60 3.8 NNW 15 26 8 14 1028.0 1028.0 0.0
09/10:30am 14.1 11.0 7.1 62 3.4 N 13 17 7 9 1028.4 1028.4 0.0
09/10:00am 12.9 9.0 7.3 69 2.7 NNW 17 26 9 14 1028.8 1028.8 0.0
09/09:30am 11.7 8.2 7.1 73 2.2 NW 15 19 8 10 1029.3 1029.3 0.0
09/09:00am 10.5 7.2 6.2 75 2.0 NNW 13 19 7 10 1029.3 1029.3 0.0
09/08:30am 9.4 6.3 5.6 77 1.7 NNW 11 19 6 10 1029.7 1029.7 0.0
09/08:00am 8.4 4.8 5.2 80 1.4 NNW 13 19 7 10 1029.8 1029.8 0.0
09/07:30am 7.7 4.0 4.7 81 1.3 NW 13 17 7 9 1029.9 1029.9 0.0
09/07:00am 6.7 4.2 4.6 86 0.9 NNW 7 13 4 7 1029.7 1029.7 0.0
09/06:30am 6.4 3.4 4.3 86 0.9 NW 9 13 5 7 1029.5 1029.5 0.0
09/06:00am 5.9 2.9 4.0 88 0.8 NW 9 11 5 6 1029.5 1029.5 0.0
09/05:30am 5.6 1.8 3.9 89 0.7 NW 13 15 7 8 1029.5 1029.5 0.0
09/05:00am 5.4 2.4 4.0 91 0.6 NW 9 11 5 6 1029.5 1029.5 0.0
09/04:30am 5.6 1.4 3.9 89 0.7 NW 15 17 8 9 1029.4 1029.4 0.0
09/04:00am 5.6 1.4 3.9 89 0.7 NW 15 17 8 9 1029.3 1029.3 0.0
09/03:30am 5.8 2.5 4.4 91 0.6 NW 11 15 6 8 1029.5 1029.5 0.0
09/03:00am 5.7 1.9 4.0 89 0.7 NW 13 17 7 9 1029.8 1029.8 0.0
09/02:30am 5.6 2.7 4.4 92 0.5 NNW 9 13 5 7 1030.1 1030.1 0.0
09/02:00am 6.2 2.9 4.6 89 0.7 NNW 11 17 6 9 1030.2 1030.2 0.0
09/01:30am 6.6 3.3 4.7 88 0.8 NNW 11 17 6 9 1030.4 1030.4 0.0
09/01:00am 6.8 3.2 5.0 88 0.8 NW 13 17 7 9 1030.5 1030.5 0.0
09/12:30am 6.8 3.2 5.0 88 0.8 NNW 13 17 7 9 1030.7 1030.7 0.0
09/12:00am 7.2 3.2 5.1 86 0.9 NW 15 17 8 9 1030.8 1030.8 0.0
 
Date/Time
EST
Temp
°C
App
Temp
°C
Dew
Point
°C
Rel
Hum
%
Delta-T
°C
Wind Press
QNH
hPa
Press
MSL
hPa
Rain since
9am
mm
Dir  Spd
km/h
Gust
km/h
Spd
kts
Gust
kts
08/11:30pm 6.9 3.3 5.1 88 0.8 NW 13 17 7 9 1031.0 1031.0 0.0
08/11:00pm 7.6 4.9 5.6 87 0.9 NNW 9 9 5 5 1031.2 1031.2 0.0
08/10:30pm 7.6 4.9 5.6 87 0.9 NW 9 11 5 6 1031.4 1031.4 0.0
08/10:00pm 7.7 6.5 4.7 81 1.3 CALM 0 0 0 0 1031.3 1031.3 0.0
08/09:30pm 7.0 5.9 4.9 86 0.9 CALM 0 0 0 0 1031.2 1031.2 0.0
08/09:00pm 9.4 7.4 4.6 72 2.1 WNW 4 9 2 5 1031.0 1031.0 0.0
08/08:30pm 7.1 5.9 4.8 85 1.0 CALM 0 0 0 0 1030.7 1030.7 0.0
08/08:00pm 9.6 8.4 4.6 71 2.2 CALM 0 0 0 0 1030.3 1030.3 0.0
08/07:30pm 9.8 7.3 4.6 70 2.3 SSW 7 9 4 5 1030.0 1030.0 0.0
08/07:00pm 10.3 7.0 4.7 68 2.5 SSW 11 13 6 7 1029.8 1029.8 0.0
08/06:30pm 10.3 7.0 4.7 68 2.5 SSW 11 13 6 7 1029.7 1029.7 0.0
08/06:00pm 11.0 7.7 4.5 64 2.9 S 11 15 6 8 1029.2 1029.2 0.0
08/05:30pm 11.8 8.9 4.7 62 3.2 S 9 13 5 7 1029.0 1029.0 0.0
08/05:00pm 12.7 9.4 4.5 57 3.7 SSE 11 13 6 7 1028.9 1028.9 0.0
08/04:30pm 13.2 9.4 3.8 53 4.2 SSE 13 17 7 9 1028.8 1028.8 0.0
08/04:00pm 13.2 9.1 4.1 54 4.1 SE 15 20 8 11 1028.7 1028.7 0.0
08/03:30pm 13.3 8.4 4.3 54 4.1 SE 19 30 10 16 1028.7 1028.7 0.0
08/03:00pm 14.1 9.1 4.5 52 4.4 SE 20 30 11 16 1028.5 1028.5 0.0
08/02:30pm 13.8 8.4 4.7 54 4.2 SE 22 30 12 16 1028.4 1028.4 0.0
08/02:00pm 13.5 8.3 3.4 50 4.5 SE 20 28 11 15 1028.4 1028.4 0.0
08/01:30pm 14.4 9.7 3.2 47 5.0 SE 17 24 9 13 1028.5 1028.5 0.0
08/01:00pm 13.7 8.6 2.8 47 4.8 SE 19 24 10 13 1028.7 1028.7 0.0
08/12:30pm 13.6 9.6 3.0 48 4.7 SSE 13 22 7 12 1029.0 1029.0 0.0
08/12:00pm 13.3 9.3 2.8 49 4.6 S 13 20 7 11 1029.1 1029.1 0.0
08/11:30am 13.8 8.8 3.8 51 4.5 S 19 26 10 14 1029.0 1029.0 0.0
08/11:00am 13.6 8.3 3.0 48 4.7 SSW 20 26 11 14 1029.0 1029.0 0.0
08/10:30am 13.2 8.2 4.4 55 4.0 SW 20 28 11 15 1028.9 1028.9 0.0
08/10:00am 13.1 8.1 4.8 57 3.8 SSW 20 28 11 15 1028.7 1028.7 0.0
08/09:30am 12.6 8.8 6.0 64 3.1 SSW 15 20 8 11 1028.5 1028.5 0.0
08/09:00am 12.3 8.5 5.9 65 3.0 SW 15 22 8 12 1028.1 1028.1 0.0
08/08:30am 11.8 9.8 7.2 73 2.2 W 7 9 4 5 1027.8 1027.8 0.0
08/08:00am 11.1 9.1 7.3 77 1.8 NW 7 9 4 5 1027.4 1027.4 0.0
08/07:30am 9.9 7.1 7.1 83 1.3 W 11 15 6 8 1026.8 1026.8 0.0
08/07:00am 10.0 7.0 7.5 84 1.2 WSW 13 17 7 9 1026.5 1026.5 0.0
08/06:30am 9.7 7.1 7.6 87 1.0 W 11 17 6 9 1026.4 1026.4 0.0
08/06:00am 10.5 6.9 6.9 78 1.7 SW 15 22 8 12 1026.0 1026.0 0.0
08/05:30am 10.4 6.9 7.2 80 1.5 SW 15 19 8 10 1025.7 1025.7 0.0
08/05:00am 10.2 7.2 6.1 76 1.9 SSW 11 13 6 7 1025.4 1025.4 0.0
08/04:30am 10.5 7.6 6.4 76 1.9 WSW 11 17 6 9 1025.1 1025.1 0.0
08/04:00am 10.5 7.2 6.4 76 1.9 SSW 13 17 7 9 1025.0 1025.0 0.0
08/03:30am 9.7 8.8 6.2 79 1.6 CALM 0 4 0 2 1024.6 1024.6 0.0
08/03:00am 10.0 7.7 5.9 75 1.9 SSW 7 9 4 5 1024.3 1024.3 0.0
08/02:30am 10.6 7.6 5.8 72 2.2 WSW 11 13 6 7 1024.4 1024.4 0.0
08/02:00am 10.7 7.4 6.2 74 2.1 SW 13 15 7 8 1024.6 1024.6 0.0
08/01:30am 10.2 7.4 7.0 80 1.5 SW 11 13 6 7 1024.3 1024.3 0.0
08/01:00am 10.6 7.5 7.2 79 1.6 SSW 13 15 7 8 1024.2 1024.2 0.0
08/12:30am 11.3 7.0 7.1 75 2.0 SSW 19 26 10 14 1024.0 1024.0 0.0
08/12:00am 11.6 6.9 7.9 78 1.8 SSW 22 32 12 17 1023.8 1023.8 0.0
 
Date/Time
EST
Temp
°C
App
Temp
°C
Dew
Point
°C
Rel
Hum
%
Delta-T
°C
Wind Press
QNH
hPa
Press
MSL
hPa
Rain since
9am
mm
Dir  Spd
km/h
Gust
km/h
Spd
kts
Gust
kts
07/11:30pm 11.3 7.1 8.2 81 1.5 SSW 20 28 11 15 1023.6 1023.6 0.0
07/11:00pm 11.4 9.3 8.3 81 1.5 SSW 9 15 5 8 1023.5 1023.5 0.0
07/10:30pm 11.2 8.2 9.2 87 1.0 SSW 15 20 8 11 1023.5 1023.5 0.0
07/10:00pm 11.4 5.6 9.6 89 0.9 S 30 37 16 20 1023.2 1023.2 0.0
07/09:30pm 11.8 6.3 9.2 84 1.3 S 28 37 15 20 1022.8 1022.8 0.0
07/09:00pm 12.1 8.4 9.5 84 1.3 SSW 19 28 10 15 1022.4 1022.4 0.0
07/08:30pm 13.0 9.7 9.4 79 1.8 SSW 17 24 9 13 1022.2 1022.2 0.0
07/08:00pm 14.1 11.0 8.7 70 2.7 S 15 22 8 12 1021.8 1021.8 0.0
07/07:30pm 14.4 11.1 9.5 72 2.5 SSE 17 20 9 11 1021.5 1021.5 0.0
07/07:00pm 14.4 12.0 8.6 68 2.9 SE 11 13 6 7 1021.1 1021.1 0.0
07/06:30pm 14.9 12.5 7.1 59 3.8 SSW 9 13 5 7 1020.7 1020.7 0.0
07/06:00pm 15.3 13.0 7.4 59 3.9 SSW 9 15 5 8 1020.4 1020.4 0.0
07/05:30pm 15.6 12.5 7.3 57 4.1 W 13 15 7 8 1020.2 1020.2 0.0
07/05:00pm 16.0 13.8 8.0 59 4.0 W 9 11 5 6 1020.0 1020.0 0.0
07/04:30pm 16.3 12.7 6.7 53 4.7 W 15 19 8 10 1020.0 1020.0 0.0
07/04:00pm 17.1 13.9 7.0 51 5.0 WSW 13 15 7 8 1019.9 1019.9 0.0
07/03:30pm 16.7 14.2 6.5 51 5.0 W 9 19 5 10 1020.1 1020.1 0.0
07/03:00pm 17.1 14.2 6.3 49 5.3 WNW 11 17 6 9 1020.1 1020.1 0.0
07/02:30pm 16.8 13.9 6.4 50 5.1 W 11 15 6 8 1020.1 1020.1 0.0
07/02:00pm 16.4 12.4 6.6 52 4.8 W 17 22 9 12 1020.3 1020.3 0.0
07/01:30pm 15.9 12.9 6.2 52 4.7 SE 11 15 6 8 1020.6 1020.6 0.0
07/01:00pm 16.8 13.5 6.4 50 5.1 NNW 13 17 7 9 1020.7 1020.7 0.0
07/12:30pm 16.9 12.8 6.0 48 5.3 NW 17 24 9 13 1021.1 1021.1 0.0
07/12:00pm 16.1 11.8 5.4 49 5.1 WNW 17 24 9 13 1021.3 1021.3 0.0
07/11:30am 15.5 11.5 5.1 50 4.9 NW 15 20 8 11 1021.6 1021.6 0.0
07/11:00am 14.8 10.2 5.8 55 4.3 NW 19 26 10 14 1021.8 1021.8 0.0
07/10:30am 14.3 9.2 5.9 57 4.0 NW 22 30 12 16 1022.0 1022.0 0.0
07/10:00am 13.0 7.3 4.7 57 3.8 NW 24 30 13 16 1022.1 1022.1 0.0
07/09:30am 12.4 7.5 5.0 60 3.4 NW 20 30 11 16 1022.2 1022.2 0.0
07/09:00am 11.2 5.9 4.8 64 2.9 NW 22 30 12 16 1022.3 1022.3 0.0
07/08:30am 10.1 5.1 4.7 69 2.4 NW 20 32 11 17 1022.2 1022.2 0.0
07/08:00am 8.9 3.9 4.6 74 1.9 NNW 20 28 11 15 1022.0 1022.0 0.0
07/07:30am 8.1 5.2 4.4 77 1.6 NNW 9 13 5 7 1022.3 1022.3 0.0
07/07:00am 7.1 3.0 4.1 81 1.3 NW 15 17 8 9 1022.2 1022.2 0.0
07/06:30am 6.9 3.5 4.1 82 1.2 NW 11 13 6 7 1022.0 1022.0 0.0
07/06:00am 6.4 3.0 4.1 85 1.0 NW 11 15 6 8 1021.8 1021.8 0.0
07/05:30am 7.1 4.2 4.6 84 1.1 NW 9 13 5 7 1021.6 1021.6 0.0
07/05:00am 6.2 2.8 4.1 86 0.9 WNW 11 13 6 7 1021.4 1021.4 0.0
07/04:30am 6.1 4.0 4.0 86 0.9 NNW 4 7 2 4 1021.2 1021.2 0.0
07/04:00am 6.4 3.7 3.5 82 1.2 W 7 9 4 5 1021.3 1021.3 0.0
07/03:30am 6.8 3.8 4.0 82 1.2 WNW 9 11 5 6 1021.2 1021.2 0.0
07/03:00am 6.8 3.4 4.2 83 1.1 NW 11 13 6 7 1021.3 1021.3 0.0
07/02:30am 7.1 4.7 4.1 81 1.3 WNW 6 7 3 4 1021.4 1021.4 0.0
07/02:00am 7.7 4.7 4.0 77 1.6 NW 9 11 5 6 1021.4 1021.4 0.0
07/01:30am 8.0 4.3 4.6 79 1.5 NW 13 13 7 7 1021.5 1021.5 0.0
07/01:00am 7.8 4.1 4.3 78 1.5 NW 13 13 7 7 1021.5 1021.5 0.0
07/12:30am 8.0 5.3 3.8 75 1.8 WNW 7 9 4 5 1021.5 1021.5 0.0
07/12:00am 8.2 5.2 4.0 75 1.8 WNW 9 9 5 5 1021.6 1021.6 0.0
 
Date/Time
EST
Temp
°C
App
Temp
°C
Dew
Point
°C
Rel
Hum
%
Delta-T
°C
Wind Press
QNH
hPa
Press
MSL
hPa
Rain since
9am
mm
Dir  Spd
km/h
Gust
km/h
Spd
kts
Gust
kts
06/11:30pm 7.9 5.4 4.5 79 1.5 WNW 7 7 4 4 1021.5 1021.5 0.0
06/11:00pm 8.2 5.8 5.3 82 1.3 NW 7 11 4 6 1021.5 1021.5 0.0
06/10:30pm 9.3 6.5 5.3 76 1.8 NNW 9 11 5 6 1021.4 1021.4 0.0
06/10:00pm 9.7 6.8 4.8 71 2.2 N 9 11 5 6 1021.3 1021.3 0.0
06/09:30pm 9.9 8.5 5.7 75 1.9 NW 2 7 1 4 1021.2 1021.2 0.0
06/09:00pm 11.2 8.7 4.0 61 3.2 WNW 6 7 3 4 1021.1 1021.1 0.0
06/08:30pm 11.3 8.6 3.9 60 3.3 NW 7 11 4 6 1020.7 1020.7 0.0
06/08:00pm 11.2 7.4 3.7 60 3.3 SSW 13 17 7 9 1020.3 1020.3 0.0
06/07:30pm 11.9 7.7 3.8 57 3.6 SW 15 19 8 10 1019.9 1019.9 0.0
06/07:00pm 11.9 8.5 4.1 59 3.5 SW 11 17 6 9 1019.4 1019.4 0.0

Latest Capital City Observations: Canberra | Sydney | Melbourne | Brisbane | Adelaide | Perth | Hobart | Darwin

Other formats

Comma delimited format used in spreadsheet applications
http://www.bom.gov.au/fwo/IDT60901/IDT60901.94975.axf

JavaScript Object Notation format (JSON) in row-major order
http://www.bom.gov.au/fwo/IDT60901/IDT60901.94975.json

Data quality

Most of these data are generated automatically and are frequently updated. Quality checks on data are not normally performed. It is possible for incorrect values to appear. Refer to information at About Latest Weather Observations and please check the disclaimer before using these data.